70°F Temp
64°F Dewpoint
83% Humidity
Temperature
13 MPH
21 KM/H
11 KTS
30°
North North
East

Wind Speed
Mostly Scattered
Clouds
Pressure 1016.62 (hPa) - 30.02 (in)
Visibility 10.0 (mi) - 16.1 (km)

Current Conditions
KORD
Location 30(mi)
Metar :KORD 070251Z 03011KT 10SM SCT010 BKN150 BKN220 21/18 A3002 RMK AO2 SLP162 T02060178 53004
Wed 6th July 21:51 pm

Airport
  Metar Aviation API Data Provided by https://www.checkwx.com/ PHP scripts by weather34.com ©2022